sensor_id;sensor_type;location;lat;lon;timestamp;temperature;humidity
71096;DHT22;58753;49.440;11.126;2023-03-19T00:01:06;6.49;80.88
71096;DHT22;58753;49.440;11.126;2023-03-19T00:03:32;6.48;80.84
71096;DHT22;58753;49.440;11.126;2023-03-19T00:05:58;6.45;80.93
71096;DHT22;58753;49.440;11.126;2023-03-19T00:08:24;6.41;81.01
71096;DHT22;58753;49.440;11.126;2023-03-19T00:10:53;6.36;81.13
71096;DHT22;58753;49.440;11.126;2023-03-19T00:13:18;6.32;81.30
71096;DHT22;58753;49.440;11.126;2023-03-19T00:15:44;6.29;81.38
71096;DHT22;58753;49.440;11.126;2023-03-19T00:18:11;6.25;81.39
71096;DHT22;58753;49.440;11.126;2023-03-19T00:20:37;6.24;81.57
71096;DHT22;58753;49.440;11.126;2023-03-19T00:23:02;6.20;81.60
71096;DHT22;58753;49.440;11.126;2023-03-19T00:25:28;6.12;81.75
71096;DHT22;58753;49.440;11.126;2023-03-19T00:27:53;6.10;81.82
71096;DHT22;58753;49.440;11.126;2023-03-19T00:30:20;6.07;81.95
71096;DHT22;58753;49.440;11.126;2023-03-19T00:32:46;6.02;82.10
71096;DHT22;58753;49.440;11.126;2023-03-19T00:35:12;6.02;82.16
71096;DHT22;58753;49.440;11.126;2023-03-19T00:37:38;6.00;82.36
71096;DHT22;58753;49.440;11.126;2023-03-19T00:40:04;5.97;82.31
71096;DHT22;58753;49.440;11.126;2023-03-19T00:42:30;5.94;82.42
71096;DHT22;58753;49.440;11.126;2023-03-19T00:44:56;5.94;82.56
71096;DHT22;58753;49.440;11.126;2023-03-19T00:47:22;5.95;82.69
71096;DHT22;58753;49.440;11.126;2023-03-19T00:49:47;5.94;82.79
71096;DHT22;58753;49.440;11.126;2023-03-19T00:52:13;5.97;82.89
71096;DHT22;58753;49.440;11.126;2023-03-19T00:54:38;5.98;82.91
71096;DHT22;58753;49.440;11.126;2023-03-19T00:57:03;5.95;82.93
71096;DHT22;58753;49.440;11.126;2023-03-19T00:59:29;5.97;83.04
71096;DHT22;58753;49.440;11.126;2023-03-19T01:01:55;5.94;82.92
71096;DHT22;58753;49.440;11.126;2023-03-19T01:04:20;5.89;83.00
71096;DHT22;58753;49.440;11.126;2023-03-19T01:06:47;5.89;83.10
71096;DHT22;58753;49.440;11.126;2023-03-19T01:09:12;5.81;83.12
71096;DHT22;58753;49.440;11.126;2023-03-19T01:11:38;5.77;83.15
71096;DHT22;58753;49.440;11.126;2023-03-19T01:14:03;5.77;83.28
71096;DHT22;58753;49.440;11.126;2023-03-19T01:16:29;5.73;83.43
71096;DHT22;58753;49.440;11.126;2023-03-19T01:18:54;5.71;83.44
71096;DHT22;58753;49.440;11.126;2023-03-19T01:21:20;5.67;83.52
71096;DHT22;58753;49.440;11.126;2023-03-19T01:23:46;5.61;83.61
71096;DHT22;58753;49.440;11.126;2023-03-19T01:26:11;5.60;83.65
71096;DHT22;58753;49.440;11.126;2023-03-19T01:28:37;5.56;83.76
71096;DHT22;58753;49.440;11.126;2023-03-19T01:31:05;5.54;83.92
71096;DHT22;58753;49.440;11.126;2023-03-19T01:33:31;5.49;84.03
71096;DHT22;58753;49.440;11.126;2023-03-19T01:35:58;5.50;84.02
71096;DHT22;58753;49.440;11.126;2023-03-19T01:38:27;5.44;84.21
71096;DHT22;58753;49.440;11.126;2023-03-19T01:40:52;5.43;84.24
71096;DHT22;58753;49.440;11.126;2023-03-19T01:43:28;5.46;84.28
71096;DHT22;58753;49.440;11.126;2023-03-19T01:46:00;5.42;84.36
71096;DHT22;58753;49.440;11.126;2023-03-19T01:48:47;5.39;84.49
71096;DHT22;58753;49.440;11.126;2023-03-19T01:51:16;5.37;84.48
71096;DHT22;58753;49.440;11.126;2023-03-19T01:53:45;5.39;84.53
71096;DHT22;58753;49.440;11.126;2023-03-19T01:58:39;5.32;84.64
71096;DHT22;58753;49.440;11.126;2023-03-19T02:01:05;5.28;84.59
71096;DHT22;58753;49.440;11.126;2023-03-19T02:03:31;5.22;84.64
71096;DHT22;58753;49.440;11.126;2023-03-19T02:05:58;5.23;84.73
71096;DHT22;58753;49.440;11.126;2023-03-19T02:08:24;5.20;84.82
71096;DHT22;58753;49.440;11.126;2023-03-19T02:10:51;5.23;84.98
71096;DHT22;58753;49.440;11.126;2023-03-19T02:13:20;5.20;85.04
71096;DHT22;58753;49.440;11.126;2023-03-19T02:15:45;5.22;85.04
71096;DHT22;58753;49.440;11.126;2023-03-19T02:18:11;5.25;85.11
71096;DHT22;58753;49.440;11.126;2023-03-19T02:20:46;5.25;85.17
71096;DHT22;58753;49.440;11.126;2023-03-19T02:26:09;5.32;85.37
71096;DHT22;58753;49.440;11.126;2023-03-19T02:28:38;5.40;85.49
71096;DHT22;58753;49.440;11.126;2023-03-19T02:31:04;5.43;85.45
71096;DHT22;58753;49.440;11.126;2023-03-19T02:33:30;5.46;85.49
71096;DHT22;58753;49.440;11.126;2023-03-19T02:35:56;5.49;85.28
71096;DHT22;58753;49.440;11.126;2023-03-19T02:38:24;5.51;85.31
71096;DHT22;58753;49.440;11.126;2023-03-19T02:41:01;5.56;85.42
71096;DHT22;58753;49.440;11.126;2023-03-19T02:43:30;5.60;85.43
71096;DHT22;58753;49.440;11.126;2023-03-19T02:45:55;5.64;85.43
71096;DHT22;58753;49.440;11.126;2023-03-19T02:48:21;5.70;84.90
71096;DHT22;58753;49.440;11.126;2023-03-19T02:50:47;5.74;84.91
71096;DHT22;58753;49.440;11.126;2023-03-19T02:53:12;5.77;85.07
71096;DHT22;58753;49.440;11.126;2023-03-19T02:55:38;5.78;84.86
71096;DHT22;58753;49.440;11.126;2023-03-19T02:58:03;5.83;84.92
71096;DHT22;58753;49.440;11.126;2023-03-19T03:00:28;5.84;84.92
71096;DHT22;58753;49.440;11.126;2023-03-19T03:02:56;5.86;84.77
71096;DHT22;58753;49.440;11.126;2023-03-19T03:05:22;5.86;84.71
71096;DHT22;58753;49.440;11.126;2023-03-19T03:07:47;5.84;84.72
71096;DHT22;58753;49.440;11.126;2023-03-19T03:10:14;5.83;84.69
71096;DHT22;58753;49.440;11.126;2023-03-19T03:12:40;5.86;84.77
71096;DHT22;58753;49.440;11.126;2023-03-19T03:15:06;5.84;84.78
71096;DHT22;58753;49.440;11.126;2023-03-19T03:17:35;5.84;84.79
71096;DHT22;58753;49.440;11.126;2023-03-19T03:20:00;5.84;84.82
71096;DHT22;58753;49.440;11.126;2023-03-19T03:22:26;5.84;84.87
71096;DHT22;58753;49.440;11.126;2023-03-19T03:24:51;5.86;84.88
71096;DHT22;58753;49.440;11.126;2023-03-19T03:27:17;5.83;84.86
71096;DHT22;58753;49.440;11.126;2023-03-19T03:29:42;5.84;84.88
71096;DHT22;58753;49.440;11.126;2023-03-19T03:32:08;5.84;84.93
71096;DHT22;58753;49.440;11.126;2023-03-19T03:34:33;5.86;85.06
71096;DHT22;58753;49.440;11.126;2023-03-19T03:36:58;5.84;84.95
71096;DHT22;58753;49.440;11.126;2023-03-19T03:39:24;5.83;84.96
71096;DHT22;58753;49.440;11.126;2023-03-19T03:41:50;5.83;85.01
71096;DHT22;58753;49.440;11.126;2023-03-19T03:44:16;5.83;85.05
71096;DHT22;58753;49.440;11.126;2023-03-19T03:46:42;5.84;85.16
71096;DHT22;58753;49.440;11.126;2023-03-19T03:49:08;5.83;85.11
71096;DHT22;58753;49.440;11.126;2023-03-19T03:51:33;5.81;85.16
71096;DHT22;58753;49.440;11.126;2023-03-19T03:53:59;5.81;85.17
71096;DHT22;58753;49.440;11.126;2023-03-19T03:56:25;5.77;85.24
71096;DHT22;58753;49.440;11.126;2023-03-19T03:58:51;5.80;85.31
71096;DHT22;58753;49.440;11.126;2023-03-19T04:01:17;5.75;85.23
71096;DHT22;58753;49.440;11.126;2023-03-19T04:03:43;5.78;85.47
71096;DHT22;58753;49.440;11.126;2023-03-19T04:06:13;5.80;85.36
71096;DHT22;58753;49.440;11.126;2023-03-19T04:08:39;5.78;85.49
71096;DHT22;58753;49.440;11.126;2023-03-19T04:11:06;5.81;85.55
71096;DHT22;58753;49.440;11.126;2023-03-19T04:13:32;5.81;85.50
71096;DHT22;58753;49.440;11.126;2023-03-19T04:16:04;5.84;85.59
71096;DHT22;58753;49.440;11.126;2023-03-19T04:18:30;5.86;85.59
71096;DHT22;58753;49.440;11.126;2023-03-19T04:20:55;5.89;85.61
71096;DHT22;58753;49.440;11.126;2023-03-19T04:23:22;5.89;85.57
71096;DHT22;58753;49.440;11.126;2023-03-19T04:25:47;5.90;85.60
71096;DHT22;58753;49.440;11.126;2023-03-19T04:28:13;5.95;85.65
71096;DHT22;58753;49.440;11.126;2023-03-19T04:30:38;5.95;85.59
71096;DHT22;58753;49.440;11.126;2023-03-19T04:33:03;5.94;85.61
71096;DHT22;58753;49.440;11.126;2023-03-19T04:35:29;5.97;85.56
71096;DHT22;58753;49.440;11.126;2023-03-19T04:37:55;6.00;85.46
71096;DHT22;58753;49.440;11.126;2023-03-19T04:40:20;6.00;85.57
71096;DHT22;58753;49.440;11.126;2023-03-19T04:42:46;6.00;85.56
71096;DHT22;58753;49.440;11.126;2023-03-19T04:45:12;6.02;85.44
71096;DHT22;58753;49.440;11.126;2023-03-19T04:47:37;5.98;85.58
71096;DHT22;58753;49.440;11.126;2023-03-19T04:50:04;6.01;85.62
71096;DHT22;58753;49.440;11.126;2023-03-19T04:52:30;5.98;85.49
71096;DHT22;58753;49.440;11.126;2023-03-19T04:54:57;5.97;85.56
71096;DHT22;58753;49.440;11.126;2023-03-19T04:57:22;5.95;85.56
71096;DHT22;58753;49.440;11.126;2023-03-19T04:59:48;5.95;85.71
71096;DHT22;58753;49.440;11.126;2023-03-19T05:02:13;5.94;85.82
71096;DHT22;58753;49.440;11.126;2023-03-19T05:04:39;5.97;85.87
71096;DHT22;58753;49.440;11.126;2023-03-19T05:07:05;5.94;85.98
71096;DHT22;58753;49.440;11.126;2023-03-19T05:09:31;5.95;86.05
71096;DHT22;58753;49.440;11.126;2023-03-19T05:11:57;6.01;86.09
71096;DHT22;58753;49.440;11.126;2023-03-19T05:14:23;6.00;86.16
71096;DHT22;58753;49.440;11.126;2023-03-19T05:16:48;5.98;86.26
71096;DHT22;58753;49.440;11.126;2023-03-19T05:19:13;6.00;86.32
71096;DHT22;58753;49.440;11.126;2023-03-19T05:21:39;5.97;86.30
71096;DHT22;58753;49.440;11.126;2023-03-19T05:24:05;5.98;86.19
71096;DHT22;58753;49.440;11.126;2023-03-19T05:26:30;5.93;86.25
71096;DHT22;58753;49.440;11.126;2023-03-19T05:28:56;5.94;86.37
71096;DHT22;58753;49.440;11.126;2023-03-19T05:31:22;5.93;86.56
71096;DHT22;58753;49.440;11.126;2023-03-19T05:33:47;5.93;86.28
71096;DHT22;58753;49.440;11.126;2023-03-19T05:36:13;5.91;86.51
71096;DHT22;58753;49.440;11.126;2023-03-19T05:38:39;5.97;86.69
71096;DHT22;58753;49.440;11.126;2023-03-19T05:41:05;5.98;86.55
71096;DHT22;58753;49.440;11.126;2023-03-19T05:43:31;6.02;86.63
71096;DHT22;58753;49.440;11.126;2023-03-19T05:45:56;6.05;86.69
71096;DHT22;58753;49.440;11.126;2023-03-19T05:48:23;6.08;86.63
71096;DHT22;58753;49.440;11.126;2023-03-19T05:50:48;6.12;86.71
71096;DHT22;58753;49.440;11.126;2023-03-19T05:53:14;6.20;86.62
71096;DHT22;58753;49.440;11.126;2023-03-19T05:55:39;6.18;86.58
71096;DHT22;58753;49.440;11.126;2023-03-19T05:58:05;6.22;86.38
71096;DHT22;58753;49.440;11.126;2023-03-19T06:00:32;6.24;86.41
71096;DHT22;58753;49.440;11.126;2023-03-19T06:02:57;6.31;86.43
71096;DHT22;58753;49.440;11.126;2023-03-19T06:05:23;6.44;86.54
71096;DHT22;58753;49.440;11.126;2023-03-19T06:07:48;6.48;86.44
71096;DHT22;58753;49.440;11.126;2023-03-19T06:10:14;6.53;86.40
71096;DHT22;58753;49.440;11.126;2023-03-19T06:12:40;6.59;86.35
71096;DHT22;58753;49.440;11.126;2023-03-19T06:15:06;6.69;86.36
71096;DHT22;58753;49.440;11.126;2023-03-19T06:17:33;6.66;86.09
71096;DHT22;58753;49.440;11.126;2023-03-19T06:19:58;6.71;86.08
71096;DHT22;58753;49.440;11.126;2023-03-19T06:22:24;6.79;85.98
71096;DHT22;58753;49.440;11.126;2023-03-19T06:24:49;6.77;85.80
71096;DHT22;58753;49.440;11.126;2023-03-19T06:27:14;6.79;85.85
71096;DHT22;58753;49.440;11.126;2023-03-19T06:29:40;6.83;85.86
71096;DHT22;58753;49.440;11.126;2023-03-19T06:32:05;6.87;85.70
71096;DHT22;58753;49.440;11.126;2023-03-19T06:34:31;6.92;85.68
71096;DHT22;58753;49.440;11.126;2023-03-19T06:36:57;6.99;85.64
71096;DHT22;58753;49.440;11.126;2023-03-19T06:39:22;7.01;85.54
71096;DHT22;58753;49.440;11.126;2023-03-19T06:41:48;7.06;85.38
71096;DHT22;58753;49.440;11.126;2023-03-19T06:44:13;7.08;85.42
71096;DHT22;58753;49.440;11.126;2023-03-19T06:46:39;7.14;85.27
71096;DHT22;58753;49.440;11.126;2023-03-19T06:49:04;7.23;85.12
71096;DHT22;58753;49.440;11.126;2023-03-19T06:51:31;7.28;85.03
71096;DHT22;58753;49.440;11.126;2023-03-19T06:53:56;7.38;85.04
71096;DHT22;58753;49.440;11.126;2023-03-19T06:56:22;7.47;84.72
71096;DHT22;58753;49.440;11.126;2023-03-19T06:58:47;7.57;84.70
71096;DHT22;58753;49.440;11.126;2023-03-19T07:01:12;7.62;84.14
71096;DHT22;58753;49.440;11.126;2023-03-19T07:03:38;7.75;84.09
71096;DHT22;58753;49.440;11.126;2023-03-19T07:06:03;7.78;83.65
71096;DHT22;58753;49.440;11.126;2023-03-19T07:08:29;7.91;83.26
71096;DHT22;58753;49.440;11.126;2023-03-19T07:11:03;7.96;83.19
71096;DHT22;58753;49.440;11.126;2023-03-19T07:13:28;8.06;82.66
71096;DHT22;58753;49.440;11.126;2023-03-19T07:15:54;8.10;82.67
71096;DHT22;58753;49.440;11.126;2023-03-19T07:18:19;8.25;82.53
71096;DHT22;58753;49.440;11.126;2023-03-19T07:20:44;8.30;82.17
71096;DHT22;58753;49.440;11.126;2023-03-19T07:23:10;8.39;82.14
71096;DHT22;58753;49.440;11.126;2023-03-19T07:25:35;8.46;81.99
71096;DHT22;58753;49.440;11.126;2023-03-19T07:28:01;8.52;81.93
71096;DHT22;58753;49.440;11.126;2023-03-19T07:30:26;8.60;81.72
71096;DHT22;58753;49.440;11.126;2023-03-19T07:32:52;8.66;81.58
71096;DHT22;58753;49.440;11.126;2023-03-19T07:35:17;8.67;81.62
71096;DHT22;58753;49.440;11.126;2023-03-19T07:37:42;8.73;81.56
71096;DHT22;58753;49.440;11.126;2023-03-19T07:40:09;8.77;81.50
71096;DHT22;58753;49.440;11.126;2023-03-19T07:42:34;8.78;81.45
71096;DHT22;58753;49.440;11.126;2023-03-19T07:45:01;8.81;81.41
71096;DHT22;58753;49.440;11.126;2023-03-19T07:47:28;8.85;81.27
71096;DHT22;58753;49.440;11.126;2023-03-19T07:49:53;8.89;81.24
71096;DHT22;58753;49.440;11.126;2023-03-19T07:52:19;8.96;81.25
71096;DHT22;58753;49.440;11.126;2023-03-19T07:54:45;9.00;81.14
71096;DHT22;58753;49.440;11.126;2023-03-19T07:57:11;9.01;81.13
71096;DHT22;58753;49.440;11.126;2023-03-19T07:59:36;9.08;81.09
71096;DHT22;58753;49.440;11.126;2023-03-19T08:02:01;9.18;81.15
71096;DHT22;58753;49.440;11.126;2023-03-19T08:04:27;9.22;81.16
71096;DHT22;58753;49.440;11.126;2023-03-19T08:06:52;9.28;81.12
71096;DHT22;58753;49.440;11.126;2023-03-19T08:09:18;9.32;81.06
71096;DHT22;58753;49.440;11.126;2023-03-19T08:11:43;9.32;81.02
71096;DHT22;58753;49.440;11.126;2023-03-19T08:14:08;9.38;80.92
71096;DHT22;58753;49.440;11.126;2023-03-19T08:16:34;9.38;80.80
71096;DHT22;58753;49.440;11.126;2023-03-19T08:18:59;9.42;80.96
71096;DHT22;58753;49.440;11.126;2023-03-19T08:21:24;9.42;81.03
71096;DHT22;58753;49.440;11.126;2023-03-19T08:23:51;9.49;81.10
71096;DHT22;58753;49.440;11.126;2023-03-19T08:26:17;9.49;81.22
71096;DHT22;58753;49.440;11.126;2023-03-19T08:28:42;9.52;81.19
71096;DHT22;58753;49.440;11.126;2023-03-19T08:31:09;9.55;81.19
71096;DHT22;58753;49.440;11.126;2023-03-19T08:33:35;9.53;81.25
71096;DHT22;58753;49.440;11.126;2023-03-19T08:36:12;9.52;81.36
71096;DHT22;58753;49.440;11.126;2023-03-19T08:38:38;9.52;81.44
71096;DHT22;58753;49.440;11.126;2023-03-19T08:41:04;9.50;81.53
71096;DHT22;58753;49.440;11.126;2023-03-19T08:43:31;9.46;81.58
71096;DHT22;58753;49.440;11.126;2023-03-19T08:45:57;9.46;81.73
71096;DHT22;58753;49.440;11.126;2023-03-19T08:48:23;9.43;81.95
71096;DHT22;58753;49.440;11.126;2023-03-19T08:50:57;9.45;82.17
71096;DHT22;58753;49.440;11.126;2023-03-19T08:53:23;9.46;82.34
71096;DHT22;58753;49.440;11.126;2023-03-19T08:55:56;9.46;82.52
71096;DHT22;58753;49.440;11.126;2023-03-19T08:58:22;9.50;82.74
71096;DHT22;58753;49.440;11.126;2023-03-19T09:00:49;9.52;82.93
71096;DHT22;58753;49.440;11.126;2023-03-19T09:03:15;9.56;83.18
71096;DHT22;58753;49.440;11.126;2023-03-19T09:05:41;9.53;83.26
71096;DHT22;58753;49.440;11.126;2023-03-19T09:08:07;9.55;83.50
71096;DHT22;58753;49.440;11.126;2023-03-19T09:10:32;9.50;83.68
71096;DHT22;58753;49.440;11.126;2023-03-19T09:12:58;9.49;83.92
71096;DHT22;58753;49.440;11.126;2023-03-19T09:15:24;9.53;84.23
71096;DHT22;58753;49.440;11.126;2023-03-19T09:17:49;9.60;84.57
71096;DHT22;58753;49.440;11.126;2023-03-19T09:20:15;9.69;84.83
71096;DHT22;58753;49.440;11.126;2023-03-19T09:22:40;9.78;85.04
71096;DHT22;58753;49.440;11.126;2023-03-19T09:25:06;9.82;85.17
71096;DHT22;58753;49.440;11.126;2023-03-19T09:27:32;9.87;85.32
71096;DHT22;58753;49.440;11.126;2023-03-19T09:29:57;9.86;85.43
71096;DHT22;58753;49.440;11.126;2023-03-19T09:32:22;9.86;85.53
71096;DHT22;58753;49.440;11.126;2023-03-19T09:34:48;9.86;85.75
71096;DHT22;58753;49.440;11.126;2023-03-19T09:37:14;9.80;85.97
71096;DHT22;58753;49.440;11.126;2023-03-19T09:39:39;9.83;86.16
71096;DHT22;58753;49.440;11.126;2023-03-19T09:44:40;9.86;86.70
71096;DHT22;58753;49.440;11.126;2023-03-19T09:47:33;9.97;87.00
71096;DHT22;58753;49.440;11.126;2023-03-19T09:50:15;10.07;87.14
71096;DHT22;58753;49.440;11.126;2023-03-19T09:53:19;10.14;87.01
71096;DHT22;58753;49.440;11.126;2023-03-19T09:55:52;10.14;87.01
71096;DHT22;58753;49.440;11.126;2023-03-19T09:58:26;10.16;87.23
71096;DHT22;58753;49.440;11.126;2023-03-19T10:00:53;10.17;87.39
71096;DHT22;58753;49.440;11.126;2023-03-19T10:16:38;10.34;87.52
71096;DHT22;58753;49.440;11.126;2023-03-19T10:19:08;10.25;87.62
71096;DHT22;58753;49.440;11.126;2023-03-19T10:21:48;10.16;87.60
71096;DHT22;58753;49.440;11.126;2023-03-19T10:24:33;10.04;87.73
71096;DHT22;58753;49.440;11.126;2023-03-19T10:27:03;10.02;87.99
71096;DHT22;58753;49.440;11.126;2023-03-19T10:29:30;10.00;88.13
71096;DHT22;58753;49.440;11.126;2023-03-19T10:34:40;10.04;88.41
71096;DHT22;58753;49.440;11.126;2023-03-19T10:39:42;10.10;88.63
71096;DHT22;58753;49.440;11.126;2023-03-19T10:42:34;10.17;88.74
71096;DHT22;58753;49.440;11.126;2023-03-19T10:47:50;10.36;88.92
71096;DHT22;58753;49.440;11.126;2023-03-19T10:50:18;10.44;88.93
71096;DHT22;58753;49.440;11.126;2023-03-19T10:52:44;10.54;89.05
71096;DHT22;58753;49.440;11.126;2023-03-19T10:55:23;10.65;89.05
71096;DHT22;58753;49.440;11.126;2023-03-19T10:57:50;10.76;89.00
71096;DHT22;58753;49.440;11.126;2023-03-19T11:00:24;10.86;89.04
71096;DHT22;58753;49.440;11.126;2023-03-19T11:02:54;10.98;89.10
71096;DHT22;58753;49.440;11.126;2023-03-19T11:07:48;11.33;89.12
71096;DHT22;58753;49.440;11.126;2023-03-19T11:10:16;11.49;89.09
71096;DHT22;58753;49.440;11.126;2023-03-19T11:12:46;11.57;88.48
71096;DHT22;58753;49.440;11.126;2023-03-19T11:15:21;11.59;88.64
71096;DHT22;58753;49.440;11.126;2023-03-19T11:17:54;11.63;88.50
71096;DHT22;58753;49.440;11.126;2023-03-19T11:22:48;11.66;88.29
71096;DHT22;58753;49.440;11.126;2023-03-19T11:25:33;11.70;88.40
71096;DHT22;58753;49.440;11.126;2023-03-19T11:28:15;11.79;88.31
71096;DHT22;58753;49.440;11.126;2023-03-19T11:39:36;13.51;88.55
71096;DHT22;58753;49.440;11.126;2023-03-19T11:45:20;13.88;85.30
71096;DHT22;58753;49.440;11.126;2023-03-19T11:48:17;14.31;85.87
71096;DHT22;58753;49.440;11.126;2023-03-19T11:56:47;14.93;81.24
71096;DHT22;58753;49.440;11.126;2023-03-19T12:04:35;15.48;75.96
71096;DHT22;58753;49.440;11.126;2023-03-19T12:07:43;16.46;77.03
71096;DHT22;58753;49.440;11.126;2023-03-19T12:10:28;17.49;75.95
71096;DHT22;58753;49.440;11.126;2023-03-19T12:13:15;17.87;70.49
71096;DHT22;58753;49.440;11.126;2023-03-19T12:18:35;17.81;67.84
71096;DHT22;58753;49.440;11.126;2023-03-19T12:24:09;18.17;66.63
71096;DHT22;58753;49.440;11.126;2023-03-19T12:29:17;17.66;64.42
71096;DHT22;58753;49.440;11.126;2023-03-19T12:35:13;16.99;64.77
71096;DHT22;58753;49.440;11.126;2023-03-19T12:38:07;17.30;66.20
71096;DHT22;58753;49.440;11.126;2023-03-19T12:40:39;17.15;61.53
71096;DHT22;58753;49.440;11.126;2023-03-19T12:43:22;16.02;62.91
71096;DHT22;58753;49.440;11.126;2023-03-19T12:46:01;15.95;66.46
71096;DHT22;58753;49.440;11.126;2023-03-19T12:48:32;16.46;67.07
71096;DHT22;58753;49.440;11.126;2023-03-19T12:51:04;17.96;65.98
71096;DHT22;58753;49.440;11.126;2023-03-19T12:53:39;17.82;62.99
71096;DHT22;58753;49.440;11.126;2023-03-19T12:56:12;17.34;61.24
71096;DHT22;58753;49.440;11.126;2023-03-19T13:01:19;17.90;63.24
71096;DHT22;58753;49.440;11.126;2023-03-19T13:06:23;19.39;57.30
71096;DHT22;58753;49.440;11.126;2023-03-19T13:09:09;19.69;58.44
71096;DHT22;58753;49.440;11.126;2023-03-19T13:14:11;18.10;55.78
71096;DHT22;58753;49.440;11.126;2023-03-19T13:19:48;18.12;56.69
71096;DHT22;58753;49.440;11.126;2023-03-19T13:22:20;17.58;56.28
71096;DHT22;58753;49.440;11.126;2023-03-19T13:24:47;17.31;57.76
71096;DHT22;58753;49.440;11.126;2023-03-19T13:27:19;18.25;59.61
71096;DHT22;58753;49.440;11.126;2023-03-19T13:32:35;20.84;55.11
71096;DHT22;58753;49.440;11.126;2023-03-19T13:38:01;21.40;50.65
71096;DHT22;58753;49.440;11.126;2023-03-19T13:40:50;20.55;49.96
71096;DHT22;58753;49.440;11.126;2023-03-19T13:48:51;19.26;49.82
71096;DHT22;58753;49.440;11.126;2023-03-19T13:56:17;18.34;54.24
71096;DHT22;58753;49.440;11.126;2023-03-19T14:01:43;17.49;52.31
71096;DHT22;58753;49.440;11.126;2023-03-19T14:04:32;17.34;52.98
71096;DHT22;58753;49.440;11.126;2023-03-19T14:14:55;16.48;56.17
71096;DHT22;58753;49.440;11.126;2023-03-19T14:17:59;16.38;55.98
71096;DHT22;58753;49.440;11.126;2023-03-19T14:23:02;16.12;56.56
71096;DHT22;58753;49.440;11.126;2023-03-19T14:26:01;16.36;56.58
71096;DHT22;58753;49.440;11.126;2023-03-19T14:31:53;17.66;55.74
71096;DHT22;58753;49.440;11.126;2023-03-19T14:34:33;17.97;53.98
71096;DHT22;58753;49.440;11.126;2023-03-19T14:37:20;18.05;52.93
71096;DHT22;58753;49.440;11.126;2023-03-19T14:40:18;17.89;52.80
71096;DHT22;58753;49.440;11.126;2023-03-19T14:45:40;17.24;51.64
71096;DHT22;58753;49.440;11.126;2023-03-19T14:49:12;17.01;51.37
71096;DHT22;58753;49.440;11.126;2023-03-19T14:53:57;16.61;52.17
71096;DHT22;58753;49.440;11.126;2023-03-19T14:56:32;16.40;52.84
71096;DHT22;58753;49.440;11.126;2023-03-19T14:58:58;16.25;53.41
71096;DHT22;58753;49.440;11.126;2023-03-19T15:01:28;16.55;54.40
71096;DHT22;58753;49.440;11.126;2023-03-19T15:03:58;17.28;54.60
71096;DHT22;58753;49.440;11.126;2023-03-19T15:06:25;17.69;53.99
71096;DHT22;58753;49.440;11.126;2023-03-19T15:08:53;17.56;51.33
71096;DHT22;58753;49.440;11.126;2023-03-19T15:19:24;17.32;51.91
71096;DHT22;58753;49.440;11.126;2023-03-19T15:21:50;17.11;52.42
71096;DHT22;58753;49.440;11.126;2023-03-19T15:24:16;16.76;51.68
71096;DHT22;58753;49.440;11.126;2023-03-19T15:26:42;17.06;54.30
71096;DHT22;58753;49.440;11.126;2023-03-19T15:29:08;18.43;54.48
71096;DHT22;58753;49.440;11.126;2023-03-19T15:31:47;18.33;50.97
71096;DHT22;58753;49.440;11.126;2023-03-19T15:34:18;17.55;51.41
71096;DHT22;58753;49.440;11.126;2023-03-19T15:36:44;17.38;52.78
71096;DHT22;58753;49.440;11.126;2023-03-19T15:39:11;17.72;52.66
71096;DHT22;58753;49.440;11.126;2023-03-19T15:41:43;17.31;52.47
71096;DHT22;58753;49.440;11.126;2023-03-19T15:44:16;16.91;52.44
71096;DHT22;58753;49.440;11.126;2023-03-19T15:46:43;16.61;52.25
71096;DHT22;58753;49.440;11.126;2023-03-19T15:49:24;16.34;53.73
71096;DHT22;58753;49.440;11.126;2023-03-19T15:51:52;16.13;53.98
71096;DHT22;58753;49.440;11.126;2023-03-19T15:54:20;15.98;54.60
71096;DHT22;58753;49.440;11.126;2023-03-19T15:56:48;15.78;55.08
71096;DHT22;58753;49.440;11.126;2023-03-19T15:59:16;15.65;55.66
71096;DHT22;58753;49.440;11.126;2023-03-19T16:01:42;15.51;56.15
71096;DHT22;58753;49.440;11.126;2023-03-19T16:04:14;15.38;56.71
71096;DHT22;58753;49.440;11.126;2023-03-19T16:06:40;15.22;57.08
71096;DHT22;58753;49.440;11.126;2023-03-19T16:09:16;15.11;57.41
71096;DHT22;58753;49.440;11.126;2023-03-19T16:11:44;15.03;57.73
71096;DHT22;58753;49.440;11.126;2023-03-19T16:14:14;14.99;58.20
71096;DHT22;58753;49.440;11.126;2023-03-19T16:16:46;14.96;58.33
71096;DHT22;58753;49.440;11.126;2023-03-19T16:19:53;15.07;58.36
71096;DHT22;58753;49.440;11.126;2023-03-19T16:22:23;14.97;57.69
71096;DHT22;58753;49.440;11.126;2023-03-19T16:24:50;14.87;57.70
71096;DHT22;58753;49.440;11.126;2023-03-19T16:27:18;14.75;57.79
71096;DHT22;58753;49.440;11.126;2023-03-19T16:29:47;14.65;58.17
71096;DHT22;58753;49.440;11.126;2023-03-19T16:32:20;14.52;58.47
71096;DHT22;58753;49.440;11.126;2023-03-19T16:34:51;14.39;58.65
71096;DHT22;58753;49.440;11.126;2023-03-19T16:42:37;14.14;59.26
71096;DHT22;58753;49.440;11.126;2023-03-19T16:47:42;13.95;59.49
71096;DHT22;58753;49.440;11.126;2023-03-19T16:50:08;13.87;59.69
71096;DHT22;58753;49.440;11.126;2023-03-19T16:52:34;13.75;59.99
71096;DHT22;58753;49.440;11.126;2023-03-19T16:55:02;13.66;60.28
71096;DHT22;58753;49.440;11.126;2023-03-19T16:57:27;13.54;60.70
71096;DHT22;58753;49.440;11.126;2023-03-19T16:59:53;13.44;61.33
71096;DHT22;58753;49.440;11.126;2023-03-19T17:02:18;13.33;61.88
71096;DHT22;58753;49.440;11.126;2023-03-19T17:04:44;13.20;62.60
71096;DHT22;58753;49.440;11.126;2023-03-19T17:07:10;13.06;63.14
71096;DHT22;58753;49.440;11.126;2023-03-19T17:09:36;12.97;63.56
71096;DHT22;58753;49.440;11.126;2023-03-19T17:12:04;12.86;63.90
71096;DHT22;58753;49.440;11.126;2023-03-19T17:14:30;12.78;64.12
71096;DHT22;58753;49.440;11.126;2023-03-19T17:16:57;12.68;64.40
71096;DHT22;58753;49.440;11.126;2023-03-19T17:19:26;12.59;64.66
71096;DHT22;58753;49.440;11.126;2023-03-19T17:21:56;12.45;64.98
71096;DHT22;58753;49.440;11.126;2023-03-19T17:24:28;12.37;65.55
71096;DHT22;58753;49.440;11.126;2023-03-19T17:26:56;12.28;66.18
71096;DHT22;58753;49.440;11.126;2023-03-19T17:29:22;12.16;66.78
71096;DHT22;58753;49.440;11.126;2023-03-19T17:31:49;12.04;67.38
71096;DHT22;58753;49.440;11.126;2023-03-19T17:34:18;11.93;67.97
71096;DHT22;58753;49.440;11.126;2023-03-19T17:36:48;11.83;68.36
71096;DHT22;58753;49.440;11.126;2023-03-19T17:39:14;11.74;68.79
71096;DHT22;58753;49.440;11.126;2023-03-19T17:41:40;11.65;69.14
71096;DHT22;58753;49.440;11.126;2023-03-19T17:44:05;11.56;69.49
71096;DHT22;58753;49.440;11.126;2023-03-19T17:46:32;11.53;69.95
71096;DHT22;58753;49.440;11.126;2023-03-19T17:49:00;11.44;70.20